Time;durP1;ratioP1;P1;durP2;ratioP2;P2;SDS_P1;SDS_P2;PMS_P1;PMS_P2;Temp;Humidity;BMP_temperature;BMP_pressure;BME280_temperature;BME280_humidity;BME280_pressure;Samples;Min_cycle;Max_cycle;Signal;HPM_P1;HPM_P2
2022/03/05 00:01:36;;;;;;;19.90;11.33;;;;;;;1.45;nan;94844.94;5046734;28;20619;-74
2022/03/05 00:04:03;;;;;;;23.03;12.23;;;;;;;1.64;nan;94841.53;5046872;28;21279;-73
2022/03/05 00:06:30;;;;;;;21.97;12.47;;;;;;;1.58;nan;94851.56;5047766;28;20260;-73
2022/03/05 00:08:56;;;;;;;22.23;11.03;;;;;;;1.66;nan;94847.38;5047814;28;20203;-73
2022/03/05 00:11:23;;;;;;;22.27;13.10;;;;;;;1.65;nan;94843.22;5047579;28;20206;-72
2022/03/05 00:13:50;;;;;;;22.13;11.87;;;;;;;1.70;nan;94844.88;5048668;28;20607;-72
2022/03/05 00:16:17;;;;;;;24.97;13.60;;;;;;;1.87;nan;94844.81;5047281;28;20910;-71
2022/03/05 00:18:45;;;;;;;27.20;14.17;;;;;;;1.77;nan;94848.16;5030805;28;20846;-71
2022/03/05 00:21:12;;;;;;;28.92;14.65;;;;;;;1.75;nan;94844.81;5046356;28;20234;-71
2022/03/05 00:23:39;;;;;;;35.90;15.43;;;;;;;1.77;nan;94843.16;5047150;28;20208;-71
2022/03/05 00:26:06;;;;;;;30.37;14.87;;;;;;;1.90;nan;94834.78;5047570;28;20260;-72
2022/03/05 00:28:33;;;;;;;29.60;13.47;;;;;;;2.10;nan;94847.22;5047720;28;20208;-71
2022/03/05 00:31:01;;;;;;;29.33;14.90;;;;;;;2.07;nan;94842.19;5046266;28;20202;-71
2022/03/05 00:33:28;;;;;;;29.60;15.30;;;;;;;2.00;nan;94846.41;5047424;28;20659;-70
2022/03/05 00:35:56;;;;;;;27.33;14.60;;;;;;;1.82;nan;94846.47;5046907;28;20297;-71
2022/03/05 00:38:23;;;;;;;27.67;14.27;;;;;;;1.66;nan;94852.38;5047361;28;20290;-70
2022/03/05 00:40:49;;;;;;;28.03;14.53;;;;;;;1.67;nan;94851.56;5047196;28;20235;-70
2022/03/05 00:43:16;;;;;;;23.97;14.50;;;;;;;1.54;nan;94849.91;5047447;28;20252;-71
2022/03/05 00:45:43;;;;;;;24.27;12.60;;;;;;;1.45;nan;94842.44;5047607;28;20194;-70
2022/03/05 00:48:10;;;;;;;23.83;13.60;;;;;;;1.39;nan;94839.94;5046315;28;20339;-71
2022/03/05 00:50:40;;;;;;;28.58;13.60;;;;;;;1.33;nan;94836.59;5048402;28;20230;-71
2022/03/05 00:53:10;;;;;;;20.43;12.40;;;;;;;1.33;nan;94826.59;5046987;28;20214;-71
2022/03/05 00:55:37;;;;;;;21.60;12.80;;;;;;;1.45;nan;94833.25;5047735;28;20966;-71
2022/03/05 00:58:04;;;;;;;19.37;13.13;;;;;;;1.54;nan;94833.22;5048609;28;20315;-71
2022/03/05 01:00:31;;;;;;;23.73;12.93;;;;;;;1.66;nan;94828.19;5049137;28;20214;-72
2022/03/05 01:02:58;;;;;;;28.00;13.27;;;;;;;1.38;nan;94838.25;5049043;28;20601;-73
2022/03/05 01:05:25;;;;;;;22.77;12.73;;;;;;;0.98;nan;94833.31;5049488;28;20285;-71
2022/03/05 01:07:52;;;;;;;21.23;13.83;;;;;;;1.24;nan;94829.09;5049623;28;20346;-71
2022/03/05 01:10:20;;;;;;;27.00;13.40;;;;;;;1.40;nan;94826.59;5049642;28;20538;-71
2022/03/05 01:12:47;;;;;;;20.70;12.47;;;;;;;1.33;nan;94826.59;5049088;28;20302;-71
2022/03/05 01:15:17;;;;;;;18.07;11.10;;;;;;;1.45;nan;94835.75;5050086;28;20228;-72
2022/03/05 01:17:43;;;;;;;16.10;10.93;;;;;;;1.28;nan;94822.41;5049552;28;20202;-71
2022/03/05 01:20:11;;;;;;;20.23;11.83;;;;;;;1.31;nan;94830.75;5049654;28;20202;-72
2022/03/05 01:22:38;;;;;;;19.60;12.80;;;;;;;1.39;nan;94822.41;5049207;28;20690;-72
2022/03/05 01:25:06;;;;;;;25.87;13.63;;;;;;;1.39;nan;94829.91;5048287;28;20194;-72
2022/03/05 01:27:38;;;;;;;25.77;12.27;;;;;;;1.69;nan;94824.84;5050165;28;20243;-72
2022/03/05 01:30:06;;;;;;;19.90;12.23;;;;;;;1.35;nan;94789.88;5050204;28;20205;-72
2022/03/05 01:32:33;;;;;;;24.13;12.27;;;;;;;1.68;nan;94818.16;5048845;28;20207;-73
2022/03/05 01:35:00;;;;;;;21.83;13.63;;;;;;;1.74;nan;94823.13;5048946;28;20226;-72
2022/03/05 01:37:26;;;;;;;21.95;11.90;;;;;;;1.82;nan;94826.44;5048717;28;20754;-72
2022/03/05 01:39:53;;;;;;;29.73;15.07;;;;;;;1.87;nan;94819.75;5047088;28;20235;-73
2022/03/05 01:42:20;;;;;;;21.88;11.93;;;;;;;1.79;nan;94808.06;5046117;28;21260;-73
2022/03/05 01:44:49;;;;;;;21.23;12.82;;;;;;;1.84;nan;94818.91;5051620;28;20194;-72
2022/03/05 01:47:16;;;;;;;23.80;12.10;;;;;;;1.82;nan;94821.44;5051447;28;20207;-73
2022/03/05 01:49:43;;;;;;;23.23;13.00;;;;;;;1.77;nan;94815.59;5051986;28;20932;-72
2022/03/05 01:52:11;;;;;;;25.13;14.10;;;;;;;1.41;nan;94823.25;5051037;28;20202;-73
2022/03/05 01:54:38;;;;;;;21.73;13.23;;;;;;;1.54;nan;94825.69;5051938;28;20269;-73
2022/03/05 01:57:05;;;;;;;27.20;13.40;;;;;;;1.46;nan;94821.56;5052660;28;20204;-72
2022/03/05 01:59:33;;;;;;;28.03;13.73;;;;;;;1.36;nan;94821.56;5052603;28;20241;-72
2022/03/05 02:02:01;;;;;;;28.83;14.07;;;;;;;1.56;nan;94823.19;5051895;28;20673;-73
2022/03/05 02:04:27;;;;;;;30.23;13.60;;;;;;;1.72;nan;94822.31;5051813;28;20194;-72
2022/03/05 02:06:54;;;;;;;21.13;13.60;;;;;;;1.89;nan;94822.25;5053158;28;20264;-72
2022/03/05 02:09:21;;;;;;;23.17;13.33;;;;;;;1.79;nan;94826.44;5052802;28;20562;-73
2022/03/05 02:11:48;;;;;;;21.27;13.53;;;;;;;1.71;nan;94813.13;5049471;28;20254;-73
2022/03/05 02:14:17;;;;;;;29.67;13.45;;;;;;;1.98;nan;94817.19;5050553;28;20194;-72
2022/03/05 02:16:44;;;;;;;22.33;13.07;;;;;;;2.00;nan;94816.31;5051481;28;20677;-71
2022/03/05 02:19:12;;;;;;;28.13;13.43;;;;;;;2.06;nan;94815.47;5050079;28;20289;-71
2022/03/05 02:21:40;;;;;;;26.57;13.17;;;;;;;2.12;nan;94825.47;5050645;28;20202;-71
2022/03/05 02:24:07;;;;;;;22.00;12.87;;;;;;;2.10;nan;94821.31;5051714;28;20210;-72
2022/03/05 02:26:34;;;;;;;23.33;13.60;;;;;;;2.22;nan;94824.59;5051953;28;20834;-72
2022/03/05 02:29:01;;;;;;;24.53;13.83;;;;;;;2.32;nan;94818.66;5051751;28;20707;-72
2022/03/05 02:31:28;;;;;;;23.70;13.97;;;;;;;2.32;nan;94830.38;5051515;28;20276;-72
2022/03/05 02:33:55;;;;;;;28.95;13.60;;;;;;;2.26;nan;94821.22;5052700;28;20201;-72
2022/03/05 02:36:25;;;;;;;23.20;13.67;;;;;;;2.16;nan;94817.09;5052466;28;20224;-71
2022/03/05 02:38:54;;;;;;;23.35;13.70;;;;;;;2.03;nan;94826.34;5051788;28;20245;-71
2022/03/05 02:41:21;;;;;;;20.67;13.47;;;;;;;1.73;nan;94824.00;5049670;28;20229;-72
2022/03/05 02:43:48;;;;;;;22.23;14.00;;;;;;;1.92;nan;94818.06;5050240;28;20205;-72
2022/03/05 02:46:15;;;;;;;28.00;15.45;;;;;;;1.97;nan;94823.88;5049567;28;20202;-71
2022/03/05 02:48:41;;;;;;;33.88;15.60;;;;;;;1.84;nan;94821.44;5050341;28;20977;-72
2022/03/05 02:51:08;;;;;;;31.40;15.90;;;;;;;2.00;nan;94823.84;5051180;28;20865;-71
2022/03/05 02:53:35;;;;;;;31.05;16.95;;;;;;;1.99;nan;94819.66;5051530;28;20274;-72
2022/03/05 02:56:04;;;;;;;30.67;17.60;;;;;;;2.05;nan;94824.66;5051640;28;20209;-72
2022/03/05 02:58:31;;;;;;;33.27;17.77;;;;;;;1.95;nan;94827.25;5049856;28;20634;-72
2022/03/05 03:00:58;;;;;;;42.70;19.63;;;;;;;2.09;nan;94824.66;5051693;28;20260;-73
2022/03/05 03:03:25;;;;;;;47.10;20.70;;;;;;;1.92;nan;94823.06;5052083;28;20202;-72
2022/03/05 03:05:51;;;;;;;39.10;20.10;;;;;;;1.99;nan;94829.69;5051694;28;20202;-72
2022/03/05 03:08:18;;;;;;;39.60;20.37;;;;;;;1.94;nan;94826.41;5049563;28;20814;-71
2022/03/05 03:10:45;;;;;;;41.42;19.17;;;;;;;1.81;nan;94827.28;5050274;28;20198;-71
2022/03/05 03:13:14;;;;;;;38.07;18.60;;;;;;;1.25;nan;94827.44;5051091;28;20202;-72
2022/03/05 03:15:41;;;;;;;27.50;16.42;;;;;;;1.28;nan;94828.25;5051276;28;20203;-72
2022/03/05 03:18:07;;;;;;;31.30;15.80;;;;;;;1.03;nan;94816.63;5051333;28;20555;-71
2022/03/05 03:20:34;;;;;;;29.00;15.97;;;;;;;1.18;nan;94838.31;5051337;28;20241;-72
2022/03/05 03:23:01;;;;;;;30.13;15.87;;;;;;;1.15;nan;94840.81;5051457;28;21040;-72
2022/03/05 03:25:28;;;;;;;22.40;13.50;;;;;;;1.35;nan;94834.94;5051593;28;20631;-72
2022/03/05 03:27:55;;;;;;;28.83;15.73;;;;;;;1.27;nan;94841.59;5050571;28;20198;-71
2022/03/05 03:30:23;;;;;;;30.40;14.82;;;;;;;1.27;nan;94838.28;5050049;28;20199;-72
2022/03/05 03:32:50;;;;;;;20.67;14.47;;;;;;;1.15;nan;94828.28;5050739;28;20203;-71
2022/03/05 03:35:17;;;;;;;25.97;14.13;;;;;;;0.90;nan;94820.81;5050816;28;20289;-73
2022/03/05 03:37:45;;;;;;;23.23;14.65;;;;;;;1.08;nan;94819.94;5050324;28;20209;-72
2022/03/05 03:40:14;;;;;;;25.93;13.70;;;;;;;1.27;nan;94829.09;5049547;28;20238;-72
2022/03/05 03:42:41;;;;;;;34.37;15.37;;;;;;;1.27;nan;94826.59;5050686;28;20293;-72
2022/03/05 03:45:09;;;;;;;26.63;14.97;;;;;;;1.31;nan;94833.25;5050624;28;20653;-73
2022/03/05 03:47:38;;;;;;;30.83;15.60;;;;;;;1.38;nan;94835.75;5050521;28;20762;-72
2022/03/05 03:50:06;;;;;;;31.10;15.30;;;;;;;1.31;nan;94840.78;5047943;28;20238;-72
2022/03/05 03:52:34;;;;;;;28.70;15.80;;;;;;;0.92;nan;94840.81;5047066;28;20206;-71
2022/03/05 03:55:00;;;;;;;32.03;16.70;;;;;;;0.74;nan;94843.34;5047435;28;20680;-71
2022/03/05 03:57:27;;;;;;;32.23;16.33;;;;;;;0.83;nan;94843.31;5047618;28;20214;-71
2022/03/05 03:59:54;;;;;;;35.43;16.13;;;;;;;0.83;nan;94839.16;5048130;28;20218;-71
2022/03/05 04:02:22;;;;;;;32.50;14.80;;;;;;;1.13;nan;94840.81;5046343;28;20578;-72
2022/03/05 04:04:51;;;;;;;30.48;16.48;;;;;;;1.32;nan;94849.94;5046200;28;20194;-73
2022/03/05 04:10:14;;;;;;;33.23;18.27;;;;;;;1.26;nan;94844.94;4964958;28;20208;-72
2022/03/05 04:12:40;;;;;;;28.40;15.37;;;;;;;1.08;nan;94842.47;5027004;28;20259;-73
2022/03/05 04:15:08;;;;;;;32.37;16.03;;;;;;;0.92;nan;94854.16;5047329;28;20219;-72
2022/03/05 04:17:35;;;;;;;31.63;16.87;;;;;;;0.98;nan;94848.34;5047130;28;20206;-72
2022/03/05 04:20:05;;;;;;;30.83;15.70;;;;;;;1.08;nan;94854.97;5046295;28;20663;-72
2022/03/05 04:22:31;;;;;;;27.95;15.90;;;;;;;0.87;nan;94855.84;5047251;28;20209;-72
2022/03/05 04:24:58;;;;;;;28.53;15.40;;;;;;;1.03;nan;94857.47;5046654;28;20293;-73
2022/03/05 04:27:25;;;;;;;24.47;15.13;;;;;;;0.79;nan;94859.16;5047245;28;20206;-72
2022/03/05 04:29:52;;;;;;;28.80;16.17;;;;;;;0.56;nan;94859.97;5046725;28;21009;-71
2022/03/05 04:32:18;;;;;;;27.88;15.82;;;;;;;0.55;nan;94859.97;5046571;28;20205;-71
2022/03/05 04:34:45;;;;;;;26.17;15.47;;;;;;;0.63;nan;94861.66;5046259;28;20228;-71
2022/03/05 04:37:14;;;;;;;28.27;15.03;;;;;;;0.86;nan;94858.34;5047442;28;20210;-71
2022/03/05 04:39:41;;;;;;;29.33;15.97;;;;;;;0.99;nan;94865.03;5047226;28;20226;-71
2022/03/05 04:42:07;;;;;;;28.70;15.30;;;;;;;1.19;nan;94857.50;5046524;28;21553;-72
2022/03/05 04:44:35;;;;;;;30.23;15.90;;;;;;;1.24;nan;94861.63;5046721;28;20645;-71
2022/03/05 04:47:02;;;;;;;25.40;15.47;;;;;;;1.38;nan;94855.78;5046080;28;20245;-72
2022/03/05 04:49:28;;;;;;;27.67;16.63;;;;;;;1.43;nan;94847.44;5046719;28;20236;-71
2022/03/05 04:51:55;;;;;;;29.67;16.05;;;;;;;1.35;nan;94854.13;5049111;28;20631;-72
2022/03/05 04:54:25;;;;;;;44.37;18.80;;;;;;;1.16;nan;94853.31;5048823;28;20712;-73
2022/03/05 04:56:52;;;;;;;35.63;16.77;;;;;;;1.21;nan;94855.81;5049621;28;20200;-73
2022/03/05 04:59:19;;;;;;;32.70;16.33;;;;;;;1.24;nan;94859.13;5048847;28;20226;-72
2022/03/05 05:01:45;;;;;;;35.38;17.45;;;;;;;1.10;nan;94860.81;5049114;28;20298;-71
2022/03/05 05:04:12;;;;;;;43.07;17.10;;;;;;;0.94;nan;94865.00;5050349;28;20583;-71
2022/03/05 05:06:39;;;;;;;37.43;17.63;;;;;;;0.72;nan;94860.84;5047737;28;20203;-73
2022/03/05 05:09:06;;;;;;;34.17;16.37;;;;;;;0.42;nan;94870.78;5047029;28;20207;-71
2022/03/05 05:11:34;;;;;;;46.63;17.10;;;;;;;0.44;nan;94869.97;5048001;28;20739;-72
2022/03/05 05:14:01;;;;;;;28.30;16.53;;;;;;;0.52;nan;94878.28;5047541;28;20705;-71
2022/03/05 05:16:27;;;;;;;32.37;16.60;;;;;;;0.75;nan;94869.97;5047069;28;20260;-71
2022/03/05 05:21:39;;;;;;;33.97;18.07;;;;;;;1.10;nan;94877.50;5053154;28;20600;-72
2022/03/05 05:24:07;;;;;;;37.07;17.70;;;;;;;1.19;nan;94883.34;5052767;28;20673;-72
2022/03/05 05:26:35;;;;;;;28.33;17.30;;;;;;;1.36;nan;94881.66;5053079;28;20783;-72
2022/03/05 05:29:01;;;;;;;26.40;16.85;;;;;;;1.28;nan;94897.50;5053073;28;20665;-72
2022/03/05 05:31:28;;;;;;;51.90;17.25;;;;;;;1.13;nan;94893.38;5053105;28;20263;-72
2022/03/05 05:33:55;;;;;;;32.13;14.93;;;;;;;1.07;nan;94903.38;5053986;28;20194;-70
2022/03/05 05:36:22;;;;;;;32.37;17.17;;;;;;;1.06;nan;94896.69;5053203;28;20248;-71
2022/03/05 05:38:49;;;;;;;31.77;17.40;;;;;;;1.26;nan;94910.03;5050748;28;20881;-72
2022/03/05 05:41:18;;;;;;;30.00;16.20;;;;;;;1.32;nan;94919.22;5050413;28;20229;-72
2022/03/05 05:43:46;;;;;;;35.73;20.13;;;;;;;1.47;nan;94928.41;5052050;28;20199;-71
2022/03/05 05:46:13;;;;;;;34.60;17.13;;;;;;;1.56;nan;94923.34;5051995;28;20247;-72
2022/03/05 05:48:40;;;;;;;31.33;18.40;;;;;;;1.59;nan;94914.19;5050392;28;20238;-71
2022/03/05 05:51:07;;;;;;;38.97;19.50;;;;;;;1.47;nan;94924.22;5049444;28;20198;-72
2022/03/05 05:53:34;;;;;;;40.87;20.73;;;;;;;1.26;nan;94925.03;5048914;28;20218;-71
2022/03/05 05:56:01;;;;;;;44.20;22.57;;;;;;;1.31;nan;94923.38;5049659;28;20202;-71
2022/03/05 05:58:28;;;;;;;46.20;21.17;;;;;;;1.63;nan;94925.03;5048695;28;20198;-72
2022/03/05 06:00:57;;;;;;;33.97;18.87;;;;;;;1.53;nan;94936.72;5048412;28;20238;-72
2022/03/05 06:03:24;;;;;;;31.33;18.27;;;;;;;1.47;nan;94933.41;5049123;28;20194;-71
2022/03/05 06:05:51;;;;;;;38.40;18.33;;;;;;;1.46;nan;94936.75;5049266;28;20202;-71
2022/03/05 06:08:18;;;;;;;36.33;18.77;;;;;;;1.12;nan;94945.91;5048360;28;20305;-71
2022/03/05 06:10:45;;;;;;;37.00;17.97;;;;;;;0.90;nan;94945.91;5048113;28;20332;-72
2022/03/05 06:13:12;;;;;;;30.13;17.35;;;;;;;0.95;nan;94949.25;5048695;28;20600;-72
2022/03/05 06:15:38;;;;;;;51.80;21.23;;;;;;;0.82;nan;94947.53;5049094;28;20697;-71
2022/03/05 06:18:07;;;;;;;46.17;23.13;;;;;;;0.92;nan;94953.41;5049989;28;20197;-72
2022/03/05 06:20:33;;;;;;;47.60;21.53;;;;;;;1.11;nan;94950.09;5048473;28;20238;-71
2022/03/05 06:23:01;;;;;;;43.90;23.10;;;;;;;0.91;nan;94955.06;5048110;28;20259;-71
2022/03/05 06:25:28;;;;;;;35.97;20.50;;;;;;;1.19;nan;94943.44;5048907;28;20236;-71
2022/03/05 06:27:55;;;;;;;46.37;25.30;;;;;;;1.14;nan;94950.09;5048181;28;20317;-72
2022/03/05 06:30:21;;;;;;;41.93;22.67;;;;;;;1.10;nan;94948.41;5048129;28;20256;-72
2022/03/05 06:32:48;;;;;;;41.90;21.73;;;;;;;1.24;nan;94953.41;5048935;28;20198;-72
2022/03/05 06:35:16;;;;;;;34.40;19.77;;;;;;;1.59;nan;94959.25;5048739;28;20207;-71
2022/03/05 06:37:43;;;;;;;44.33;19.87;;;;;;;1.60;nan;94950.91;5049051;28;20198;-73
2022/03/05 06:40:11;;;;;;;37.25;19.63;;;;;;;1.67;nan;94956.75;5047943;28;20750;-72
2022/03/05 06:42:39;;;;;;;43.88;19.77;;;;;;;1.58;nan;94952.59;5048358;28;20199;-73
2022/03/05 06:45:08;;;;;;;36.37;20.00;;;;;;;1.82;nan;94951.72;5048398;28;20213;-72
2022/03/05 06:47:35;;;;;;;42.10;20.80;;;;;;;1.96;nan;94950.03;5048306;28;20198;-72
2022/03/05 06:50:02;;;;;;;66.40;29.83;;;;;;;2.29;nan;94958.25;5049269;28;20677;-72
2022/03/05 06:52:30;;;;;;;43.15;22.42;;;;;;;2.39;nan;94949.88;5051966;28;20253;-72
2022/03/05 06:54:57;;;;;;;45.25;19.73;;;;;;;2.68;nan;94963.13;5051350;28;20634;-72
2022/03/05 06:57:24;;;;;;;32.50;19.30;;;;;;;2.91;nan;94959.66;5051728;28;20207;-70
2022/03/05 06:59:51;;;;;;;34.50;18.63;;;;;;;3.19;nan;94955.31;5051589;28;20245;-72
2022/03/05 07:02:18;;;;;;;31.33;19.97;;;;;;;3.30;nan;94959.38;5051523;28;20561;-71
2022/03/05 07:04:45;;;;;;;38.03;21.58;;;;;;;3.31;nan;94956.03;5051061;28;20190;-73
2022/03/05 07:07:12;;;;;;;36.28;20.60;;;;;;;3.51;nan;94950.84;5051973;28;20210;-71
2022/03/05 07:09:40;;;;;;;41.60;21.17;;;;;;;4.02;nan;94954.56;5051613;28;20229;-71
2022/03/05 07:12:09;;;;;;;51.70;26.52;;;;;;;4.07;nan;94939.44;5050289;28;20201;-71
2022/03/05 07:14:36;;;;;;;57.03;27.33;;;;;;;4.55;nan;94938.03;5052105;28;20209;-73
2022/03/05 07:17:04;;;;;;;54.47;24.10;;;;;;;5.07;nan;94933.13;5050844;28;20776;-72
2022/03/05 07:19:30;;;;;;;45.83;23.10;;;;;;;5.30;nan;94937.81;5050187;28;20198;-71
2022/03/05 07:21:57;;;;;;;68.80;30.63;;;;;;;5.66;nan;94933.06;5051317;28;20237;-72
2022/03/05 07:24:24;;;;;;;60.25;27.52;;;;;;;5.37;nan;94933.53;5050648;28;20201;-72
2022/03/05 07:26:52;;;;;;;49.67;23.73;;;;;;;5.70;nan;94932.13;5050292;28;20803;-72
2022/03/05 07:29:19;;;;;;;38.72;23.02;;;;;;;6.70;nan;94930.25;5050907;28;20596;-72
2022/03/05 07:31:46;;;;;;;43.47;23.42;;;;;;;6.94;nan;94923.03;5048060;28;20202;-72
2022/03/05 07:34:13;;;;;;;35.53;19.15;;;;;;;7.89;nan;94925.00;5050128;28;20259;-74
2022/03/05 07:36:40;;;;;;;39.10;20.20;;;;;;;7.81;nan;94917.59;5050111;28;20236;-73
2022/03/05 07:39:08;;;;;;;43.05;19.67;;;;;;;6.70;nan;94922.69;5050287;28;20205;-74
2022/03/05 07:41:35;;;;;;;40.05;19.20;;;;;;;6.43;nan;94928.31;5050117;28;20226;-73
2022/03/05 07:44:03;;;;;;;34.80;20.50;;;;;;;6.55;nan;94933.13;5049341;28;20206;-73
2022/03/05 07:46:30;;;;;;;36.83;19.80;;;;;;;6.02;nan;94922.34;5049241;28;20650;-72
2022/03/05 07:48:57;;;;;;;35.97;18.67;;;;;;;5.89;nan;94928.50;5050369;28;20649;-74
2022/03/05 07:51:24;;;;;;;35.17;20.00;;;;;;;5.70;nan;94922.88;5054647;28;20202;-73
2022/03/05 07:53:52;;;;;;;38.88;20.20;;;;;;;5.69;nan;94931.31;5050440;28;20623;-72
2022/03/05 07:56:20;;;;;;;37.40;22.02;;;;;;;5.58;nan;94919.75;5052979;28;20525;-74
2022/03/05 07:58:46;;;;;;;34.88;20.92;;;;;;;5.48;nan;94924.09;5052866;28;20669;-72
2022/03/05 08:01:15;;;;;;;58.72;28.58;;;;;;;5.36;nan;94927.66;5051984;28;20225;-72
2022/03/05 08:03:41;;;;;;;58.97;29.83;;;;;;;4.77;nan;94924.31;5052267;28;20207;-73
2022/03/05 08:06:08;;;;;;;44.45;23.75;;;;;;;4.76;nan;94932.72;5052156;28;20261;-73
2022/03/05 08:08:35;;;;;;;37.00;20.05;;;;;;;5.27;nan;94927.78;5053608;28;20673;-72
2022/03/05 08:11:03;;;;;;;33.23;19.97;;;;;;;5.38;nan;94928.47;5049062;28;20674;-73
2022/03/05 08:13:30;;;;;;;29.83;18.60;;;;;;;5.25;nan;94937.06;5049063;28;20283;-72
2022/03/05 08:15:58;;;;;;;35.60;19.73;;;;;;;4.76;nan;94930.19;5052333;28;20230;-73
2022/03/05 08:18:26;;;;;;;37.45;20.48;;;;;;;4.53;nan;94927.16;5051241;28;20206;-72
2022/03/05 08:20:53;;;;;;;45.08;22.02;;;;;;;4.37;nan;94935.75;5051962;28;20253;-74
2022/03/05 08:23:20;;;;;;;36.05;19.67;;;;;;;4.86;nan;94933.44;5050454;28;20198;-74
2022/03/05 08:25:47;;;;;;;34.38;20.50;;;;;;;5.27;nan;94940.38;5051573;28;20198;-72
2022/03/05 08:28:13;;;;;;;40.72;20.77;;;;;;;5.48;nan;94937.53;5052556;28;20195;-72
2022/03/05 08:30:41;;;;;;;50.80;21.05;;;;;;;5.74;nan;94932.06;5053514;28;20596;-71
2022/03/05 08:33:08;;;;;;;33.35;19.88;;;;;;;6.75;nan;94931.00;5050596;28;20206;-72
2022/03/05 08:35:36;;;;;;;36.80;19.08;;;;;;;7.02;nan;94928.75;5051487;28;20855;-73
2022/03/05 08:38:03;;;;;;;41.03;21.15;;;;;;;7.24;nan;94929.94;5050536;28;20213;-72
2022/03/05 08:40:30;;;;;;;41.72;20.88;;;;;;;7.50;nan;94932.69;5049476;28;20464;-71
2022/03/05 08:42:56;;;;;;;42.00;22.60;;;;;;;7.26;nan;94928.22;5048803;28;20666;-70
2022/03/05 08:45:23;;;;;;;32.95;21.50;;;;;;;7.05;nan;94926.16;5051304;28;20618;-75
2022/03/05 08:47:50;;;;;;;38.33;21.58;;;;;;;7.10;nan;94934.47;5050692;28;20198;-72
2022/03/05 08:50:17;;;;;;;41.58;21.40;;;;;;;6.68;nan;94929.47;5048871;28;20242;-72
2022/03/05 08:52:45;;;;;;;32.17;19.30;;;;;;;6.72;nan;94938.66;5050828;28;20709;-73
2022/03/05 08:55:16;;;;;;;59.75;30.67;;;;;;;6.39;nan;94936.81;5051039;28;20222;-74
2022/03/05 08:57:43;;;;;;;39.40;22.30;;;;;;;5.86;nan;94928.50;5051613;28;20234;-72
2022/03/05 09:00:13;;;;;;;42.65;22.85;;;;;;;5.69;nan;94933.81;5050821;28;20661;-72
2022/03/05 09:02:40;;;;;;;38.13;22.58;;;;;;;5.25;nan;94938.75;5051211;28;20198;-72
2022/03/05 09:05:08;;;;;;;59.97;23.52;;;;;;;5.31;nan;94947.06;5051334;28;20579;-72
2022/03/05 09:07:34;;;;;;;41.63;21.92;;;;;;;5.34;nan;94939.44;5050693;28;20194;-72
2022/03/05 09:10:03;;;;;;;40.70;22.10;;;;;;;5.28;nan;94939.53;5052923;28;20693;-72
2022/03/05 09:12:30;;;;;;;39.80;22.08;;;;;;;4.74;nan;94939.47;5051866;28;20205;-72
2022/03/05 09:14:57;;;;;;;37.60;20.70;;;;;;;4.53;nan;94933.88;5051325;28;20670;-72
2022/03/05 09:17:24;;;;;;;40.40;22.67;;;;;;;4.37;nan;94928.19;5051716;28;20218;-71
2022/03/05 09:19:50;;;;;;;43.10;23.40;;;;;;;4.39;nan;94926.50;5048848;28;20206;-70
2022/03/05 09:22:17;;;;;;;50.88;26.42;;;;;;;4.22;nan;94928.34;5050081;28;20284;-72
2022/03/05 09:24:44;;;;;;;41.33;24.70;;;;;;;4.33;nan;94929.91;5051569;28;20214;-72
2022/03/05 09:27:13;;;;;;;44.03;22.90;;;;;;;4.55;nan;94922.94;5050603;28;20213;-72
2022/03/05 09:29:40;;;;;;;37.17;20.98;;;;;;;4.56;nan;94921.25;5050841;28;20202;-72
2022/03/05 09:32:08;;;;;;;37.30;22.27;;;;;;;4.58;nan;94922.91;5051162;28;20267;-72
2022/03/05 09:34:36;;;;;;;36.30;21.73;;;;;;;4.89;nan;94927.53;5050203;28;20203;-73
2022/03/05 09:37:03;;;;;;;32.75;19.20;;;;;;;4.89;nan;94932.56;5051133;28;20205;-72
2022/03/05 09:39:30;;;;;;;29.92;18.58;;;;;;;4.60;nan;94931.25;5052076;28;20650;-72
2022/03/05 09:41:57;;;;;;;39.92;20.70;;;;;;;4.70;nan;94922.72;5052007;28;21983;-72
2022/03/05 09:44:25;;;;;;;35.30;19.92;;;;;;;4.92;nan;94917.41;5051179;28;20221;-71
2022/03/05 09:46:53;;;;;;;37.58;21.88;;;;;;;5.12;nan;94910.41;5051082;28;20601;-72
2022/03/05 09:49:20;;;;;;;45.20;23.33;;;;;;;5.56;nan;94907.16;5047730;28;20778;-71
2022/03/05 09:51:47;;;;;;;44.97;24.70;;;;;;;5.61;nan;94910.44;5052915;28;21882;-74
2022/03/05 09:54:14;;;;;;;39.58;21.13;;;;;;;5.96;nan;94912.38;5052250;28;20218;-73
2022/03/05 09:56:42;;;;;;;39.73;20.77;;;;;;;6.09;nan;94913.81;5053604;28;20198;-73
2022/03/05 09:59:08;;;;;;;31.70;20.17;;;;;;;6.14;nan;94912.06;5052713;28;20300;-71
2022/03/05 10:01:38;;;;;;;35.05;19.42;;;;;;;6.31;nan;94913.41;5053723;28;20850;-73
2022/03/05 10:04:05;;;;;;;39.30;18.80;;;;;;;6.46;nan;94915.63;5052306;28;20669;-71
2022/03/05 10:06:32;;;;;;;29.65;16.67;;;;;;;6.21;nan;94911.91;5053181;28;21704;-71
2022/03/05 10:08:59;;;;;;;22.83;15.13;;;;;;;6.06;nan;94911.34;5053122;28;20206;-71
2022/03/05 10:11:39;;;;;;;25.40;15.30;;;;;;;5.75;nan;94912.72;5053244;28;20194;-71
2022/03/05 10:14:15;;;;;;;30.38;17.98;;;;;;;5.64;nan;94914.63;5052147;28;20752;-73
2022/03/05 10:16:43;;;;;;;23.73;15.13;;;;;;;5.44;nan;94913.22;5051735;28;20252;-73
2022/03/05 10:19:18;;;;;;;34.47;16.67;;;;;;;5.56;nan;94911.38;5053206;28;20210;-72
2022/03/05 10:21:58;;;;;;;23.77;16.60;;;;;;;5.64;nan;94917.97;5051245;28;20699;-72
2022/03/05 10:24:33;;;;;;;21.55;14.77;;;;;;;5.68;nan;94912.03;5050911;28;20288;-73
2022/03/05 10:27:01;;;;;;;24.10;16.40;;;;;;;5.63;nan;94897.81;5050276;28;20675;-72
2022/03/05 10:29:34;;;;;;;28.48;16.67;;;;;;;5.79;nan;94900.03;5053431;28;20817;-71
2022/03/05 10:32:05;;;;;;;22.48;16.77;;;;;;;5.83;nan;94895.78;5052145;28;20198;-72
2022/03/05 10:34:54;;;;;;;33.58;17.42;;;;;;;5.81;nan;94907.59;5052854;28;20638;-71
2022/03/05 10:37:23;;;;;;;31.40;15.73;;;;;;;5.54;nan;94908.06;5051063;28;20209;-71
2022/03/05 10:39:51;;;;;;;23.42;14.60;;;;;;;5.14;nan;94886.03;5052054;28;20202;-71
2022/03/05 10:42:19;;;;;;;25.50;15.67;;;;;;;5.30;nan;94895.00;5051604;28;20221;-71
2022/03/05 10:44:59;;;;;;;25.42;16.35;;;;;;;5.08;nan;94893.66;5051894;28;20202;-72
2022/03/05 10:47:36;;;;;;;23.15;14.70;;;;;;;5.17;nan;94883.47;5050833;28;20248;-74
2022/03/05 10:50:06;;;;;;;40.08;17.98;;;;;;;5.21;nan;94879.19;5049672;28;20238;-71
2022/03/05 10:52:45;;;;;;;31.55;18.05;;;;;;;5.24;nan;94879.97;5050380;28;20202;-71
2022/03/05 10:55:22;;;;;;;24.55;16.65;;;;;;;5.21;nan;94887.56;5050195;28;20250;-71
2022/03/05 10:58:01;;;;;;;29.42;16.25;;;;;;;5.22;nan;94881.69;5050066;28;20288;-73
2022/03/05 11:00:28;;;;;;;26.70;16.85;;;;;;;4.97;nan;94867.81;5049149;28;20217;-72
2022/03/05 11:02:58;;;;;;;28.05;17.42;;;;;;;5.04;nan;94881.97;5049145;28;20738;-72
2022/03/05 11:05:25;;;;;;;24.35;15.65;;;;;;;4.87;nan;94877.19;5050148;28;20264;-72
2022/03/05 11:07:54;;;;;;;28.10;16.90;;;;;;;4.68;nan;94859.00;5048723;28;20672;-72
2022/03/05 11:10:25;;;;;;;29.73;17.75;;;;;;;4.82;nan;94865.53;5049172;28;20206;-73
2022/03/05 11:12:56;;;;;;;28.73;17.60;;;;;;;4.90;nan;94868.78;5049292;28;20208;-72
2022/03/05 11:15:23;;;;;;;28.42;17.25;;;;;;;4.96;nan;94873.69;5049674;28;20206;-71
2022/03/05 11:17:51;;;;;;;24.53;15.60;;;;;;;4.81;nan;94853.78;5048214;28;20851;-73
2022/03/05 11:20:19;;;;;;;29.40;17.85;;;;;;;4.87;nan;94856.22;5049299;28;20292;-71
2022/03/05 11:22:49;;;;;;;30.90;16.73;;;;;;;4.99;nan;94858.53;5048620;28;20252;-71
2022/03/05 11:25:21;;;;;;;25.05;14.73;;;;;;;4.77;nan;94848.78;5049637;28;20210;-70
2022/03/05 11:27:57;;;;;;;22.15;15.32;;;;;;;4.96;nan;94854.38;5049312;28;20206;-72
2022/03/05 11:30:25;;;;;;;18.02;12.55;;;;;;;5.04;nan;94851.75;5049279;28;20768;-70
2022/03/05 11:32:52;;;;;;;20.65;14.13;;;;;;;4.86;nan;94847.00;5048063;28;20283;-71
2022/03/05 11:35:22;;;;;;;22.60;16.08;;;;;;;4.76;nan;94844.59;5045035;28;20288;-71
2022/03/05 11:37:52;;;;;;;28.25;16.90;;;;;;;4.79;nan;94842.06;5048120;28;20210;-70
2022/03/05 11:40:34;;;;;;;20.10;14.13;;;;;;;4.92;nan;94826.78;5048681;28;20229;-71
2022/03/05 11:43:19;;;;;;;23.50;16.00;;;;;;;5.10;nan;94826.47;5047969;28;20287;-71
2022/03/05 11:45:49;;;;;;;18.75;13.90;;;;;;;4.86;nan;94826.88;5048076;28;20293;-71
2022/03/05 11:48:26;;;;;;;23.15;16.02;;;;;;;4.98;nan;94811.53;5047136;28;20202;-71
2022/03/05 11:50:57;;;;;;;21.55;13.93;;;;;;;5.13;nan;94822.22;5050935;28;20753;-74